sensor_id;sensor_type;location;lat;lon;timestamp;pressure;altitude;pressure_sealevel;temperature;humidity
64298;BME280;50639;53.270;7.956;2023-05-25T00:00:51;102628.78;;;7.43;78.45
64298;BME280;50639;53.270;7.956;2023-05-25T00:03:17;102627.34;;;7.39;78.33
64298;BME280;50639;53.270;7.956;2023-05-25T00:05:44;102626.16;;;7.32;78.52
64298;BME280;50639;53.270;7.956;2023-05-25T00:08:09;102642.47;;;7.28;78.39
64298;BME280;50639;53.270;7.956;2023-05-25T00:10:35;102639.09;;;7.26;78.24
64298;BME280;50639;53.270;7.956;2023-05-25T00:13:00;102648.03;;;7.25;78.48
64298;BME280;50639;53.270;7.956;2023-05-25T00:15:26;102638.50;;;7.22;78.92
64298;BME280;50639;53.270;7.956;2023-05-25T00:17:51;102638.75;;;7.19;78.93
64298;BME280;50639;53.270;7.956;2023-05-25T00:20:19;102637.31;;;7.15;78.64
64298;BME280;50639;53.270;7.956;2023-05-25T00:22:44;102637.69;;;7.10;79.39
64298;BME280;50639;53.270;7.956;2023-05-25T00:25:10;102640.56;;;7.07;80.30
64298;BME280;50639;53.270;7.956;2023-05-25T00:27:36;102630.19;;;7.04;81.33
64298;BME280;50639;53.270;7.956;2023-05-25T00:30:02;102639.28;;;7.02;81.02
64298;BME280;50639;53.270;7.956;2023-05-25T00:32:27;102638.78;;;6.97;82.08
64298;BME280;50639;53.270;7.956;2023-05-25T00:34:53;102635.88;;;7.00;81.43
64298;BME280;50639;53.270;7.956;2023-05-25T00:37:19;102624.19;;;7.02;81.07
64298;BME280;50639;53.270;7.956;2023-05-25T00:39:45;102632.25;;;7.01;80.47
64298;BME280;50639;53.270;7.956;2023-05-25T00:42:11;102627.91;;;7.00;79.83
64298;BME280;50639;53.270;7.956;2023-05-25T00:44:37;102627.44;;;6.95;79.69
64298;BME280;50639;53.270;7.956;2023-05-25T00:47:04;102630.34;;;6.92;79.89
64298;BME280;50639;53.270;7.956;2023-05-25T00:49:33;102626.09;;;6.89;79.78
64298;BME280;50639;53.270;7.956;2023-05-25T00:51:59;102625.38;;;6.87;79.45
64298;BME280;50639;53.270;7.956;2023-05-25T00:54:26;102625.38;;;6.87;79.24
64298;BME280;50639;53.270;7.956;2023-05-25T00:57:01;102623.84;;;6.85;79.18
64298;BME280;50639;53.270;7.956;2023-05-25T00:59:32;102618.63;;;6.83;79.59
64298;BME280;50639;53.270;7.956;2023-05-25T01:02:03;102623.34;;;6.79;79.65
64298;BME280;50639;53.270;7.956;2023-05-25T01:04:33;102626.38;;;6.75;79.57
64298;BME280;50639;53.270;7.956;2023-05-25T01:07:02;102626.25;;;6.76;79.75
64298;BME280;50639;53.270;7.956;2023-05-25T01:09:29;102624.56;;;6.75;79.61
64298;BME280;50639;53.270;7.956;2023-05-25T01:11:59;102625.53;;;6.74;80.29
64298;BME280;50639;53.270;7.956;2023-05-25T01:14:27;102629.88;;;6.75;81.31
64298;BME280;50639;53.270;7.956;2023-05-25T01:16:56;102629.25;;;6.72;83.44
64298;BME280;50639;53.270;7.956;2023-05-25T01:19:24;102623.94;;;6.72;83.38
64298;BME280;50639;53.270;7.956;2023-05-25T01:22:03;102620.94;;;6.76;83.33
64298;BME280;50639;53.270;7.956;2023-05-25T01:24:43;102616.31;;;6.78;84.52
64298;BME280;50639;53.270;7.956;2023-05-25T01:27:13;102624.28;;;6.78;81.76
64298;BME280;50639;53.270;7.956;2023-05-25T01:29:42;102627.44;;;6.84;82.93
64298;BME280;50639;53.270;7.956;2023-05-25T01:32:08;102621.28;;;6.83;81.11
64298;BME280;50639;53.270;7.956;2023-05-25T01:34:36;102621.06;;;6.75;81.05
64298;BME280;50639;53.270;7.956;2023-05-25T01:37:04;102623.09;;;6.71;80.56
64298;BME280;50639;53.270;7.956;2023-05-25T01:39:34;102626.13;;;6.67;80.32
64298;BME280;50639;53.270;7.956;2023-05-25T01:42:00;102631.91;;;6.61;80.19
64298;BME280;50639;53.270;7.956;2023-05-25T01:44:26;102632.16;;;6.58;80.28
64298;BME280;50639;53.270;7.956;2023-05-25T01:47:15;102624.44;;;6.55;79.70
64298;BME280;50639;53.270;7.956;2023-05-25T01:49:55;102632.75;;;6.50;79.63
64298;BME280;50639;53.270;7.956;2023-05-25T01:52:27;102630.44;;;6.46;80.30
64298;BME280;50639;53.270;7.956;2023-05-25T01:55:04;102631.41;;;6.45;79.51
64298;BME280;50639;53.270;7.956;2023-05-25T01:57:35;102635.88;;;6.44;79.35
64298;BME280;50639;53.270;7.956;2023-05-25T02:00:04;102636.72;;;6.45;79.84
64298;BME280;50639;53.270;7.956;2023-05-25T02:02:41;102628.03;;;6.42;79.19
64298;BME280;50639;53.270;7.956;2023-05-25T02:05:08;102634.44;;;6.40;79.20
64298;BME280;50639;53.270;7.956;2023-05-25T02:07:33;102638.06;;;6.39;79.66
64298;BME280;50639;53.270;7.956;2023-05-25T02:10:00;102624.03;;;6.37;79.43
64298;BME280;50639;53.270;7.956;2023-05-25T02:12:25;102627.66;;;6.36;79.59
64298;BME280;50639;53.270;7.956;2023-05-25T02:14:52;102632.00;;;6.37;79.60
64298;BME280;50639;53.270;7.956;2023-05-25T02:17:17;102636.47;;;6.36;79.33
64298;BME280;50639;53.270;7.956;2023-05-25T02:19:44;102639.13;;;6.36;79.14
64298;BME280;50639;53.270;7.956;2023-05-25T02:22:10;102634.78;;;6.35;79.21
64298;BME280;50639;53.270;7.956;2023-05-25T02:24:36;102636.47;;;6.36;79.71
64298;BME280;50639;53.270;7.956;2023-05-25T02:27:03;102631.53;;;6.32;79.78
64298;BME280;50639;53.270;7.956;2023-05-25T02:29:30;102647.31;;;6.22;81.81
64298;BME280;50639;53.270;7.956;2023-05-25T02:31:56;102631.97;;;6.26;81.41
64298;BME280;50639;53.270;7.956;2023-05-25T02:34:21;102631.53;;;6.32;81.15
64298;BME280;50639;53.270;7.956;2023-05-25T02:36:46;102636.84;;;6.32;80.55
64298;BME280;50639;53.270;7.956;2023-05-25T02:39:12;102639.50;;;6.32;80.66
64298;BME280;50639;53.270;7.956;2023-05-25T02:41:38;102638.75;;;6.30;80.39
64298;BME280;50639;53.270;7.956;2023-05-25T02:44:05;102636.84;;;6.32;80.48
64298;BME280;50639;53.270;7.956;2023-05-25T02:46:31;102641.31;;;6.31;80.14
64298;BME280;50639;53.270;7.956;2023-05-25T02:48:58;102639.34;;;6.33;80.42
64298;BME280;50639;53.270;7.956;2023-05-25T02:51:24;102643.00;;;6.32;80.45
64298;BME280;50639;53.270;7.956;2023-05-25T02:53:52;102638.75;;;6.30;80.82
64298;BME280;50639;53.270;7.956;2023-05-25T02:56:17;102634.63;;;6.26;80.32
64298;BME280;50639;53.270;7.956;2023-05-25T02:58:43;102653.34;;;6.24;80.19
64298;BME280;50639;53.270;7.956;2023-05-25T03:01:16;102643.91;;;6.20;80.01
64298;BME280;50639;53.270;7.956;2023-05-25T03:03:49;102652.84;;;6.19;79.62
64298;BME280;50639;53.270;7.956;2023-05-25T03:06:20;102654.66;;;6.19;79.47
64298;BME280;50639;53.270;7.956;2023-05-25T03:08:49;102654.16;;;6.14;79.59
64298;BME280;50639;53.270;7.956;2023-05-25T03:11:15;102654.28;;;6.12;80.06
64298;BME280;50639;53.270;7.956;2023-05-25T03:13:41;102656.94;;;6.12;80.46
64298;BME280;50639;53.270;7.956;2023-05-25T03:16:08;102658.38;;;6.16;82.65
64298;BME280;50639;53.270;7.956;2023-05-25T03:18:33;102657.56;;;6.27;83.17
64298;BME280;50639;53.270;7.956;2023-05-25T03:21:01;102651.91;;;6.31;81.59
64298;BME280;50639;53.270;7.956;2023-05-25T03:23:26;102658.66;;;6.35;83.78
64298;BME280;50639;53.270;7.956;2023-05-25T03:25:55;102656.63;;;6.39;82.47
64298;BME280;50639;53.270;7.956;2023-05-25T03:28:21;102657.94;;;6.45;86.11
64298;BME280;50639;53.270;7.956;2023-05-25T03:30:48;102660.97;;;6.51;85.36
64298;BME280;50639;53.270;7.956;2023-05-25T03:33:14;102661.13;;;6.50;83.73
64298;BME280;50639;53.270;7.956;2023-05-25T03:35:44;102673.16;;;6.54;85.40
64298;BME280;50639;53.270;7.956;2023-05-25T03:38:10;102672.69;;;6.60;86.95
64298;BME280;50639;53.270;7.956;2023-05-25T03:40:37;102684.66;;;6.65;85.36
64298;BME280;50639;53.270;7.956;2023-05-25T03:43:02;102678.38;;;6.66;87.06
64298;BME280;50639;53.270;7.956;2023-05-25T03:45:30;102679.81;;;6.70;84.33
64298;BME280;50639;53.270;7.956;2023-05-25T03:47:56;102680.56;;;6.72;84.77
64298;BME280;50639;53.270;7.956;2023-05-25T03:50:21;102678.63;;;6.74;84.03
64298;BME280;50639;53.270;7.956;2023-05-25T03:52:47;102681.03;;;6.77;82.62
64298;BME280;50639;53.270;7.956;2023-05-25T03:55:12;102685.16;;;6.82;83.05
64298;BME280;50639;53.270;7.956;2023-05-25T03:57:40;102684.41;;;6.79;82.32
64298;BME280;50639;53.270;7.956;2023-05-25T04:00:07;102682.03;;;6.76;82.50
64298;BME280;50639;53.270;7.956;2023-05-25T04:02:38;102679.38;;;6.76;81.67
64298;BME280;50639;53.270;7.956;2023-05-25T04:05:04;102679.38;;;6.76;82.67
64298;BME280;50639;53.270;7.956;2023-05-25T04:07:33;102685.63;;;6.75;82.15
64298;BME280;50639;53.270;7.956;2023-05-25T04:10:03;102672.00;;;6.80;81.87
64298;BME280;50639;53.270;7.956;2023-05-25T04:12:28;102686.00;;;6.82;82.36
64298;BME280;50639;53.270;7.956;2023-05-25T04:14:54;102686.47;;;6.87;81.51
64298;BME280;50639;53.270;7.956;2023-05-25T04:17:23;102683.47;;;6.92;81.86
64298;BME280;50639;53.270;7.956;2023-05-25T04:19:51;102680.69;;;6.93;81.07
64298;BME280;50639;53.270;7.956;2023-05-25T04:22:18;102684.16;;;7.05;82.50
64298;BME280;50639;53.270;7.956;2023-05-25T04:24:44;102689.97;;;7.21;82.38
64298;BME280;50639;53.270;7.956;2023-05-25T04:27:10;102696.72;;;7.25;81.64
64298;BME280;50639;53.270;7.956;2023-05-25T04:29:36;102686.09;;;7.25;81.33
64298;BME280;50639;53.270;7.956;2023-05-25T04:32:21;102693.09;;;7.26;80.83
64298;BME280;50639;53.270;7.956;2023-05-25T04:34:53;102696.50;;;7.28;81.12
64298;BME280;50639;53.270;7.956;2023-05-25T04:37:22;102705.78;;;7.34;81.16
64298;BME280;50639;53.270;7.956;2023-05-25T04:39:53;102701.78;;;7.39;81.57
64298;BME280;50639;53.270;7.956;2023-05-25T04:42:19;102707.34;;;7.47;81.33
64298;BME280;50639;53.270;7.956;2023-05-25T04:44:50;102711.19;;;7.54;81.13
64298;BME280;50639;53.270;7.956;2023-05-25T04:47:23;102712.94;;;7.65;81.90
64298;BME280;50639;53.270;7.956;2023-05-25T04:49:50;102714.38;;;7.80;82.88
64298;BME280;50639;53.270;7.956;2023-05-25T04:52:15;102721.34;;;7.92;84.08
64298;BME280;50639;53.270;7.956;2023-05-25T04:54:43;102725.66;;;8.05;83.37
64298;BME280;50639;53.270;7.956;2023-05-25T04:57:08;102720.16;;;8.17;83.24
64298;BME280;50639;53.270;7.956;2023-05-25T04:59:34;102713.91;;;8.28;82.84
64298;BME280;50639;53.270;7.956;2023-05-25T05:02:02;102726.50;;;8.37;83.55
64298;BME280;50639;53.270;7.956;2023-05-25T05:04:28;102724.75;;;8.47;83.51
64298;BME280;50639;53.270;7.956;2023-05-25T05:06:54;102723.84;;;8.58;84.76
64298;BME280;50639;53.270;7.956;2023-05-25T05:09:22;102731.91;;;8.67;85.84
64298;BME280;50639;53.270;7.956;2023-05-25T05:11:49;102736.38;;;8.88;85.53
64298;BME280;50639;53.270;7.956;2023-05-25T05:14:16;102734.63;;;9.07;86.07
64298;BME280;50639;53.270;7.956;2023-05-25T05:16:44;102727.50;;;9.18;85.88
64298;BME280;50639;53.270;7.956;2023-05-25T05:19:12;102728.25;;;9.29;85.10
64298;BME280;50639;53.270;7.956;2023-05-25T05:21:37;102727.56;;;9.37;86.23
64298;BME280;50639;53.270;7.956;2023-05-25T05:24:05;102734.19;;;9.42;85.71
64298;BME280;50639;53.270;7.956;2023-05-25T05:26:31;102732.84;;;9.58;85.05
64298;BME280;50639;53.270;7.956;2023-05-25T05:28:57;102732.44;;;9.72;84.71
64298;BME280;50639;53.270;7.956;2023-05-25T05:31:23;102739.47;;;9.82;85.40
64298;BME280;50639;53.270;7.956;2023-05-25T05:33:49;102736.25;;;9.89;85.85
64298;BME280;50639;53.270;7.956;2023-05-25T05:36:19;102747.50;;;10.02;85.87
64298;BME280;50639;53.270;7.956;2023-05-25T05:38:44;102746.97;;;10.17;86.23
64298;BME280;50639;53.270;7.956;2023-05-25T05:41:12;102753.31;;;10.36;84.62
64298;BME280;50639;53.270;7.956;2023-05-25T05:43:39;102740.09;;;10.34;85.54
64298;BME280;50639;53.270;7.956;2023-05-25T05:46:07;102740.47;;;10.59;85.58
64298;BME280;50639;53.270;7.956;2023-05-25T05:48:34;102743.25;;;10.76;84.17
64298;BME280;50639;53.270;7.956;2023-05-25T05:50:59;102750.41;;;10.76;84.24
64298;BME280;50639;53.270;7.956;2023-05-25T05:53:25;102758.44;;;10.76;84.20
64298;BME280;50639;53.270;7.956;2023-05-25T05:55:50;102758.69;;;10.82;83.32
64298;BME280;50639;53.270;7.956;2023-05-25T05:58:18;102762.91;;;10.94;83.00
64298;BME280;50639;53.270;7.956;2023-05-25T06:00:44;102766.28;;;10.97;82.73
64298;BME280;50639;53.270;7.956;2023-05-25T06:03:09;102773.56;;;11.04;81.54
64298;BME280;50639;53.270;7.956;2023-05-25T06:05:35;102762.94;;;11.22;82.04
64298;BME280;50639;53.270;7.956;2023-05-25T06:08:01;102772.47;;;11.34;81.51
64298;BME280;50639;53.270;7.956;2023-05-25T06:10:27;102768.66;;;11.37;79.58
64298;BME280;50639;53.270;7.956;2023-05-25T06:12:52;102769.09;;;11.32;79.60
64298;BME280;50639;53.270;7.956;2023-05-25T06:15:20;102770.09;;;11.58;79.81
64298;BME280;50639;53.270;7.956;2023-05-25T06:17:48;102772.09;;;11.56;78.65
64298;BME280;50639;53.270;7.956;2023-05-25T06:20:14;102770.56;;;11.72;78.08
64298;BME280;50639;53.270;7.956;2023-05-25T06:22:40;102777.31;;;11.85;78.52
64298;BME280;50639;53.270;7.956;2023-05-25T06:25:09;102778.75;;;11.70;77.08
64298;BME280;50639;53.270;7.956;2023-05-25T06:27:35;102787.09;;;11.77;77.14
64298;BME280;50639;53.270;7.956;2023-05-25T06:30:02;102780.06;;;11.93;76.72
64298;BME280;50639;53.270;7.956;2023-05-25T06:32:28;102785.28;;;11.95;74.82
64298;BME280;50639;53.270;7.956;2023-05-25T06:34:54;102799.09;;;11.90;73.49
64298;BME280;50639;53.270;7.956;2023-05-25T06:37:20;102791.56;;;12.03;74.32
64298;BME280;50639;53.270;7.956;2023-05-25T06:39:46;102792.16;;;12.33;73.92
64298;BME280;50639;53.270;7.956;2023-05-25T06:42:11;102793.16;;;12.50;72.73
64298;BME280;50639;53.270;7.956;2023-05-25T06:44:48;102792.22;;;12.59;73.39
64298;BME280;50639;53.270;7.956;2023-05-25T06:47:16;102788.31;;;12.71;72.29
64298;BME280;50639;53.270;7.956;2023-05-25T06:49:41;102795.25;;;12.81;69.88
64298;BME280;50639;53.270;7.956;2023-05-25T06:52:08;102804.47;;;12.61;68.33
64298;BME280;50639;53.270;7.956;2023-05-25T06:54:33;102804.75;;;13.19;69.02
64298;BME280;50639;53.270;7.956;2023-05-25T06:56:59;102809.78;;;12.97;67.59
64298;BME280;50639;53.270;7.956;2023-05-25T06:59:25;102805.00;;;13.08;66.19
64298;BME280;50639;53.270;7.956;2023-05-25T07:01:51;102805.41;;;12.96;67.25
64298;BME280;50639;53.270;7.956;2023-05-25T07:04:16;102819.44;;;12.90;68.60
64298;BME280;50639;53.270;7.956;2023-05-25T07:06:42;102815.63;;;12.92;69.42
64298;BME280;50639;53.270;7.956;2023-05-25T07:09:07;102814.44;;;12.51;69.68
64298;BME280;50639;53.270;7.956;2023-05-25T07:11:33;102818.13;;;12.32;70.14
64298;BME280;50639;53.270;7.956;2023-05-25T07:13:58;102834.72;;;12.18;70.38
64298;BME280;50639;53.270;7.956;2023-05-25T07:16:24;102825.50;;;12.30;70.32
64298;BME280;50639;53.270;7.956;2023-05-25T07:18:50;102821.88;;;12.75;69.18
64298;BME280;50639;53.270;7.956;2023-05-25T07:21:15;102825.69;;;12.72;68.99
64298;BME280;50639;53.270;7.956;2023-05-25T07:23:41;102827.28;;;13.27;67.45
64298;BME280;50639;53.270;7.956;2023-05-25T07:26:07;102833.16;;;13.30;65.57
64298;BME280;50639;53.270;7.956;2023-05-25T07:28:33;102831.00;;;13.34;65.76
64298;BME280;50639;53.270;7.956;2023-05-25T07:30:58;102837.78;;;13.20;65.29
64298;BME280;50639;53.270;7.956;2023-05-25T07:33:23;102839.13;;;13.16;64.81
64298;BME280;50639;53.270;7.956;2023-05-25T07:35:49;102843.13;;;12.76;65.62
64298;BME280;50639;53.270;7.956;2023-05-25T07:38:16;102849.81;;;12.90;64.91
64298;BME280;50639;53.270;7.956;2023-05-25T07:40:41;102848.50;;;12.76;66.72
64298;BME280;50639;53.270;7.956;2023-05-25T07:43:08;102848.38;;;13.04;62.97
64298;BME280;50639;53.270;7.956;2023-05-25T07:53:26;102858.97;;;13.05;58.67
64298;BME280;50639;53.270;7.956;2023-05-25T07:55:52;102854.78;;;13.11;59.67
64298;BME280;50639;53.270;7.956;2023-05-25T07:58:18;102865.47;;;13.03;60.52
64298;BME280;50639;53.270;7.956;2023-05-25T08:00:43;102853.28;;;12.82;60.99
64298;BME280;50639;53.270;7.956;2023-05-25T08:03:09;102854.00;;;13.10;60.15
64298;BME280;50639;53.270;7.956;2023-05-25T08:05:35;102859.06;;;13.81;60.51
64298;BME280;50639;53.270;7.956;2023-05-25T08:08:02;102868.19;;;13.54;57.45
64298;BME280;50639;53.270;7.956;2023-05-25T08:10:27;102870.50;;;13.49;58.99
64298;BME280;50639;53.270;7.956;2023-05-25T08:12:57;102864.16;;;13.50;58.65
64298;BME280;50639;53.270;7.956;2023-05-25T08:15:24;102862.69;;;13.64;59.45
64298;BME280;50639;53.270;7.956;2023-05-25T08:17:50;102870.25;;;13.61;58.28
64298;BME280;50639;53.270;7.956;2023-05-25T08:20:16;102869.09;;;13.63;57.69
64298;BME280;50639;53.270;7.956;2023-05-25T08:22:44;102864.22;;;13.67;57.63
64298;BME280;50639;53.270;7.956;2023-05-25T08:25:09;102871.97;;;14.12;57.41
64298;BME280;50639;53.270;7.956;2023-05-25T08:27:35;102870.53;;;14.34;56.73
64298;BME280;50639;53.270;7.956;2023-05-25T08:30:01;102882.91;;;14.18;55.82
64298;BME280;50639;53.270;7.956;2023-05-25T08:32:28;102876.75;;;13.92;57.15
64298;BME280;50639;53.270;7.956;2023-05-25T08:34:53;102879.19;;;14.11;56.80
64298;BME280;50639;53.270;7.956;2023-05-25T08:37:18;102881.22;;;13.75;57.64
64298;BME280;50639;53.270;7.956;2023-05-25T08:39:46;102890.38;;;13.99;57.89
64298;BME280;50639;53.270;7.956;2023-05-25T08:42:12;102888.69;;;13.89;57.92
64298;BME280;50639;53.270;7.956;2023-05-25T08:44:38;102885.59;;;14.26;57.14
64298;BME280;50639;53.270;7.956;2023-05-25T08:47:05;102878.03;;;14.22;56.93
64298;BME280;50639;53.270;7.956;2023-05-25T08:49:37;102885.97;;;14.31;56.80
64298;BME280;50639;53.270;7.956;2023-05-25T08:52:03;102887.56;;;14.58;56.44
64298;BME280;50639;53.270;7.956;2023-05-25T08:54:34;102884.50;;;13.95;57.87
64298;BME280;50639;53.270;7.956;2023-05-25T08:57:18;102898.09;;;13.93;55.99
64298;BME280;50639;53.270;7.956;2023-05-25T08:59:51;102896.72;;;13.55;56.65
64298;BME280;50639;53.270;7.956;2023-05-25T09:05:08;102897.16;;;14.11;56.87
64298;BME280;50639;53.270;7.956;2023-05-25T09:07:34;102911.88;;;13.99;57.31
64298;BME280;50639;53.270;7.956;2023-05-25T09:10:00;102908.47;;;14.30;56.50
64298;BME280;50639;53.270;7.956;2023-05-25T09:12:28;102909.94;;;13.75;57.15
64298;BME280;50639;53.270;7.956;2023-05-25T09:14:56;102912.22;;;13.96;58.22
64298;BME280;50639;53.270;7.956;2023-05-25T09:17:21;102906.81;;;13.87;58.68
64298;BME280;50639;53.270;7.956;2023-05-25T09:19:48;102910.00;;;13.91;57.92
64298;BME280;50639;53.270;7.956;2023-05-25T09:22:14;102910.66;;;13.85;57.26
64298;BME280;50639;53.270;7.956;2023-05-25T09:24:40;102912.88;;;13.64;57.07
64298;BME280;50639;53.270;7.956;2023-05-25T09:27:08;102911.28;;;13.45;56.42
64298;BME280;50639;53.270;7.956;2023-05-25T09:29:35;102915.34;;;13.83;54.66
64298;BME280;50639;53.270;7.956;2023-05-25T09:32:03;102915.38;;;13.91;55.49
64298;BME280;50639;53.270;7.956;2023-05-25T09:34:31;102916.34;;;14.16;55.61
64298;BME280;50639;53.270;7.956;2023-05-25T09:37:13;102921.50;;;14.09;54.74
64298;BME280;50639;53.270;7.956;2023-05-25T09:39:44;102927.59;;;14.19;55.83
64298;BME280;50639;53.270;7.956;2023-05-25T09:42:10;102931.22;;;14.02;54.91
64298;BME280;50639;53.270;7.956;2023-05-25T09:44:43;102918.41;;;14.38;53.56
64298;BME280;50639;53.270;7.956;2023-05-25T09:47:09;102933.84;;;14.36;54.52
64298;BME280;50639;53.270;7.956;2023-05-25T09:49:35;102938.81;;;14.49;55.68
64298;BME280;50639;53.270;7.956;2023-05-25T09:52:01;102937.53;;;14.27;55.01
64298;BME280;50639;53.270;7.956;2023-05-25T09:54:28;102939.91;;;14.38;54.20
64298;BME280;50639;53.270;7.956;2023-05-25T09:56:53;102933.28;;;14.58;53.35
64298;BME280;50639;53.270;7.956;2023-05-25T09:59:21;102934.00;;;15.09;52.41
64298;BME280;50639;53.270;7.956;2023-05-25T10:01:50;102933.66;;;14.96;51.51
64298;BME280;50639;53.270;7.956;2023-05-25T10:04:19;102938.53;;;14.92;50.62
64298;BME280;50639;53.270;7.956;2023-05-25T10:06:47;102944.09;;;14.99;51.42
64298;BME280;50639;53.270;7.956;2023-05-25T10:09:14;102946.41;;;14.78;52.99
64298;BME280;50639;53.270;7.956;2023-05-25T10:11:42;102944.22;;;14.65;53.67
64298;BME280;50639;53.270;7.956;2023-05-25T10:14:09;102947.75;;;14.74;54.78
64298;BME280;50639;53.270;7.956;2023-05-25T10:16:41;102956.66;;;14.58;54.69
64298;BME280;50639;53.270;7.956;2023-05-25T10:19:14;102944.53;;;14.62;53.78
64298;BME280;50639;53.270;7.956;2023-05-25T10:21:47;102947.09;;;14.80;53.98
64298;BME280;50639;53.270;7.956;2023-05-25T10:24:23;102960.19;;;14.58;54.27
64298;BME280;50639;53.270;7.956;2023-05-25T10:26:53;102945.53;;;14.61;54.34
64298;BME280;50639;53.270;7.956;2023-05-25T10:29:20;102944.59;;;14.94;53.80
64298;BME280;50639;53.270;7.956;2023-05-25T10:31:48;102942.06;;;15.25;50.98
64298;BME280;50639;53.270;7.956;2023-05-25T10:34:14;102944.91;;;15.40;52.14
64298;BME280;50639;53.270;7.956;2023-05-25T10:36:40;102934.31;;;15.47;49.59
64298;BME280;50639;53.270;7.956;2023-05-25T10:39:06;102945.75;;;15.40;50.67
64298;BME280;50639;53.270;7.956;2023-05-25T10:41:32;102951.63;;;14.79;52.46
64298;BME280;50639;53.270;7.956;2023-05-25T10:43:58;102962.78;;;15.09;52.25
64298;BME280;50639;53.270;7.956;2023-05-25T10:46:24;102964.06;;;14.64;52.16
64298;BME280;50639;53.270;7.956;2023-05-25T10:48:50;102965.22;;;14.61;52.19
64298;BME280;50639;53.270;7.956;2023-05-25T10:51:18;102947.59;;;14.75;52.84
64298;BME280;50639;53.270;7.956;2023-05-25T10:53:46;102952.75;;;14.60;52.67
64298;BME280;50639;53.270;7.956;2023-05-25T10:56:13;102948.31;;;15.01;51.51
64298;BME280;50639;53.270;7.956;2023-05-25T10:58:42;102943.91;;;15.57;50.13
64298;BME280;50639;53.270;7.956;2023-05-25T11:01:12;102940.34;;;15.73;50.30
64298;BME280;50639;53.270;7.956;2023-05-25T11:06:11;102949.91;;;15.84;48.54
64298;BME280;50639;53.270;7.956;2023-05-25T11:09:06;102953.69;;;14.93;51.74
64298;BME280;50639;53.270;7.956;2023-05-25T11:14:21;102946.59;;;14.84;53.14
64298;BME280;50639;53.270;7.956;2023-05-25T11:17:09;102951.97;;;14.76;54.69
64298;BME280;50639;53.270;7.956;2023-05-25T11:19:47;102948.78;;;15.13;50.92
64298;BME280;50639;53.270;7.956;2023-05-25T11:22:35;102940.72;;;15.13;51.74
64298;BME280;50639;53.270;7.956;2023-05-25T11:25:39;102945.88;;;14.50;51.39
64298;BME280;50639;53.270;7.956;2023-05-25T11:28:08;102940.91;;;15.20;50.08
64298;BME280;50639;53.270;7.956;2023-05-25T11:30:37;102925.75;;;16.06;51.44
64298;BME280;50639;53.270;7.956;2023-05-25T11:33:04;102925.34;;;16.17;48.94
64298;BME280;50639;53.270;7.956;2023-05-25T11:35:31;102928.75;;;15.32;50.91
64298;BME280;50639;53.270;7.956;2023-05-25T11:37:58;102929.41;;;15.42;50.92
64298;BME280;50639;53.270;7.956;2023-05-25T11:40:28;102942.06;;;15.01;50.49
64298;BME280;50639;53.270;7.956;2023-05-25T11:42:56;102933.13;;;15.65;49.98
64298;BME280;50639;53.270;7.956;2023-05-25T11:45:27;102924.97;;;15.90;48.31
64298;BME280;50639;53.270;7.956;2023-05-25T11:47:53;102932.28;;;15.65;48.59
64298;BME280;50639;53.270;7.956;2023-05-25T11:50:18;102927.25;;;15.37;50.53
64298;BME280;50639;53.270;7.956;2023-05-25T11:52:44;102918.78;;;15.73;49.00
64298;BME280;50639;53.270;7.956;2023-05-25T11:55:13;102924.22;;;16.04;48.83
64298;BME280;50639;53.270;7.956;2023-05-25T11:57:39;102922.25;;;16.29;47.71
64298;BME280;50639;53.270;7.956;2023-05-25T12:00:06;102925.50;;;15.77;50.11
64298;BME280;50639;53.270;7.956;2023-05-25T12:02:39;102932.47;;;15.47;48.74
64298;BME280;50639;53.270;7.956;2023-05-25T12:05:06;102912.63;;;15.95;50.57
64298;BME280;50639;53.270;7.956;2023-05-25T12:07:33;102920.63;;;15.80;48.62
64298;BME280;50639;53.270;7.956;2023-05-25T12:10:07;102924.06;;;15.26;50.65
64298;BME280;50639;53.270;7.956;2023-05-25T12:12:51;102933.91;;;15.90;50.57
64298;BME280;50639;53.270;7.956;2023-05-25T12:15:23;102917.78;;;16.13;48.13
64298;BME280;50639;53.270;7.956;2023-05-25T12:17:49;102924.25;;;16.66;47.59
64298;BME280;50639;53.270;7.956;2023-05-25T12:20:16;102918.28;;;16.16;48.22
64298;BME280;50639;53.270;7.956;2023-05-25T12:22:42;102912.34;;;16.21;48.96
64298;BME280;50639;53.270;7.956;2023-05-25T12:25:10;102911.34;;;15.75;51.09
64298;BME280;50639;53.270;7.956;2023-05-25T12:27:37;102913.56;;;15.71;49.68
64298;BME280;50639;53.270;7.956;2023-05-25T12:30:04;102915.28;;;16.03;51.59
64298;BME280;50639;53.270;7.956;2023-05-25T12:32:31;102916.59;;;16.46;47.77
64298;BME280;50639;53.270;7.956;2023-05-25T12:35:02;102910.44;;;16.30;48.62
64298;BME280;50639;53.270;7.956;2023-05-25T12:37:27;102912.16;;;15.84;49.51
64298;BME280;50639;53.270;7.956;2023-05-25T12:39:52;102900.72;;;16.21;50.37
64298;BME280;50639;53.270;7.956;2023-05-25T12:42:18;102907.59;;;16.62;49.75
64298;BME280;50639;53.270;7.956;2023-05-25T12:44:44;102916.13;;;16.04;48.63
64298;BME280;50639;53.270;7.956;2023-05-25T12:49:43;102919.44;;;15.83;49.53
64298;BME280;50639;53.270;7.956;2023-05-25T12:52:10;102910.88;;;15.71;50.63
64298;BME280;50639;53.270;7.956;2023-05-25T12:54:56;102896.03;;;15.75;50.64
64298;BME280;50639;53.270;7.956;2023-05-25T12:57:21;102914.63;;;15.38;50.53
64298;BME280;50639;53.270;7.956;2023-05-25T12:59:46;102906.38;;;15.23;50.97
64298;BME280;50639;53.270;7.956;2023-05-25T13:02:20;102905.84;;;15.60;50.11
64298;BME280;50639;53.270;7.956;2023-05-25T13:04:45;102894.84;;;16.17;49.37
64298;BME280;50639;53.270;7.956;2023-05-25T13:07:12;102920.66;;;15.64;49.88
64298;BME280;50639;53.270;7.956;2023-05-25T13:09:37;102909.94;;;14.99;49.57
64298;BME280;50639;53.270;7.956;2023-05-25T13:12:03;102905.13;;;15.74;51.28
64298;BME280;50639;53.270;7.956;2023-05-25T13:14:29;102897.66;;;15.29;48.97
64298;BME280;50639;53.270;7.956;2023-05-25T13:16:54;102910.94;;;15.23;50.00